createdAt,value
2023-04-16T00:02:15.898Z,17.40
2023-04-16T00:05:18.016Z,17.50
2023-04-16T00:08:20.157Z,17.40
2023-04-16T00:11:22.561Z,17.50
2023-04-16T00:14:24.628Z,17.50
2023-04-16T00:17:26.891Z,17.50
2023-04-16T00:20:28.927Z,17.50
2023-04-16T00:23:31.203Z,17.50
2023-04-16T00:26:33.408Z,17.50
2023-04-16T00:29:35.812Z,17.60
2023-04-16T00:32:38.955Z,17.60
2023-04-16T00:35:41.450Z,17.60
2023-04-16T00:38:43.528Z,17.60
2023-04-16T00:41:46.347Z,17.60
2023-04-16T00:44:49.411Z,17.60
2023-04-16T00:47:52.652Z,17.60
2023-04-16T00:50:55.678Z,17.60
2023-04-16T00:53:58.241Z,17.60
2023-04-16T00:57:00.333Z,17.60
2023-04-16T01:00:03.222Z,17.60
2023-04-16T01:03:05.912Z,17.60
2023-04-16T01:06:08.125Z,17.60
2023-04-16T01:09:13.540Z,17.60
2023-04-16T01:12:15.772Z,17.60
2023-04-16T01:15:17.861Z,17.60
2023-04-16T01:18:21.508Z,17.50
2023-04-16T01:21:23.613Z,17.50
2023-04-16T01:24:25.645Z,17.50
2023-04-16T01:27:27.656Z,17.50
2023-04-16T01:30:29.728Z,17.50
2023-04-16T01:33:31.859Z,17.50
2023-04-16T01:36:33.872Z,17.50
2023-04-16T01:39:35.914Z,17.50
2023-04-16T01:42:39.092Z,17.50
2023-04-16T01:45:41.367Z,17.40
2023-04-16T01:48:43.557Z,17.40
2023-04-16T01:51:45.763Z,17.40
2023-04-16T01:54:47.786Z,17.30
2023-04-16T01:57:49.909Z,17.30
2023-04-16T02:00:52.141Z,17.30
2023-04-16T02:03:54.460Z,17.30
2023-04-16T02:06:56.549Z,17.30
2023-04-16T02:09:58.663Z,17.30
2023-04-16T02:13:00.701Z,17.30
2023-04-16T02:16:02.883Z,17.30
2023-04-16T02:19:04.975Z,17.30
2023-04-16T02:22:07.304Z,17.30
2023-04-16T02:25:09.487Z,17.30
2023-04-16T02:28:14.226Z,17.30
2023-04-16T02:31:19.727Z,17.30
2023-04-16T02:34:21.897Z,17.30
2023-04-16T02:37:25.971Z,17.20
2023-04-16T02:40:28.392Z,17.20
2023-04-16T02:43:31.324Z,17.20
2023-04-16T02:46:33.777Z,17.20
2023-04-16T02:49:36.025Z,17.10
2023-04-16T02:52:38.133Z,17.10
2023-04-16T02:55:40.228Z,17.10
2023-04-16T02:58:42.301Z,17.10
2023-04-16T03:01:44.308Z,17.00
2023-04-16T03:04:46.799Z,17.00
2023-04-16T03:07:50.710Z,16.90
2023-04-16T03:10:52.876Z,16.90
2023-04-16T03:14:04.913Z,16.90
2023-04-16T03:17:07.217Z,16.80
2023-04-16T03:20:17.195Z,16.80
2023-04-16T03:23:19.356Z,16.80
2023-04-16T03:26:21.880Z,16.80
2023-04-16T03:29:23.845Z,16.70
2023-04-16T03:32:26.078Z,16.70
2023-04-16T03:35:28.325Z,16.60
2023-04-16T03:38:30.509Z,16.60
2023-04-16T03:41:34.717Z,16.50
2023-04-16T03:44:36.911Z,16.50
2023-04-16T03:47:39.005Z,16.40
2023-04-16T03:50:44.939Z,16.40
2023-04-16T03:53:46.942Z,16.30
2023-04-16T03:56:50.444Z,16.30
2023-04-16T03:59:52.621Z,16.30
2023-04-16T04:02:54.892Z,16.20
2023-04-16T04:05:57.077Z,16.10
2023-04-16T04:08:59.628Z,16.10
2023-04-16T04:12:02.197Z,16.10
2023-04-16T04:15:09.076Z,16.10
2023-04-16T04:18:17.769Z,16.10
2023-04-16T04:21:20.118Z,16.10
2023-04-16T04:24:22.660Z,16.10
2023-04-16T04:27:24.676Z,16.10
2023-04-16T04:30:26.829Z,16.20
2023-04-16T04:33:29.267Z,16.20
2023-04-16T04:36:31.293Z,16.20
2023-04-16T04:39:33.280Z,16.20
2023-04-16T04:42:35.302Z,16.20
2023-04-16T04:45:37.681Z,16.30
2023-04-16T04:48:39.742Z,16.20
2023-04-16T04:51:41.997Z,16.20
2023-04-16T04:54:43.977Z,16.30
2023-04-16T04:57:46.090Z,16.30
2023-04-16T05:00:48.235Z,16.30
2023-04-16T05:03:52.235Z,16.30
2023-04-16T05:06:54.259Z,16.30
2023-04-16T05:09:56.584Z,16.30
2023-04-16T05:12:58.842Z,16.30
2023-04-16T05:16:00.852Z,16.30
2023-04-16T05:19:02.891Z,16.30
2023-04-16T05:22:05.063Z,16.40
2023-04-16T05:25:07.411Z,16.40
2023-04-16T05:28:11.088Z,16.40
2023-04-16T05:31:13.253Z,16.50
2023-04-16T05:34:15.242Z,16.40
2023-04-16T05:37:18.173Z,16.50
2023-04-16T05:40:20.306Z,16.60
2023-04-16T05:43:22.324Z,16.60
2023-04-16T05:46:24.408Z,16.70
2023-04-16T05:49:26.468Z,16.80
2023-04-16T05:52:28.450Z,16.80
2023-04-16T05:55:30.539Z,16.80
2023-04-16T05:58:32.528Z,16.80
2023-04-16T06:01:34.620Z,16.80
2023-04-16T06:04:37.317Z,16.70
2023-04-16T06:07:39.433Z,16.70
2023-04-16T06:10:41.483Z,16.70
2023-04-16T06:13:43.569Z,16.80
2023-04-16T06:16:46.967Z,16.80
2023-04-16T06:19:49.050Z,16.90
2023-04-16T06:22:52.044Z,17.20
2023-04-16T06:25:54.608Z,17.60
2023-04-16T06:28:56.704Z,18.00
2023-04-16T06:31:58.839Z,18.40
2023-04-16T06:35:01.138Z,18.80
2023-04-16T06:38:03.178Z,19.30
2023-04-16T06:41:05.366Z,19.70
2023-04-16T06:44:07.431Z,20.00
2023-04-16T06:47:09.522Z,20.40
2023-04-16T06:50:11.862Z,20.70
2023-04-16T06:53:13.912Z,21.00
2023-04-16T06:56:16.216Z,21.20
2023-04-16T06:59:18.827Z,21.80
2023-04-16T07:02:20.916Z,22.00
2023-04-16T07:05:23.065Z,22.70
2023-04-16T07:08:28.051Z,22.90
2023-04-16T07:11:30.811Z,22.80
2023-04-16T07:14:32.858Z,23.30
2023-04-16T07:17:34.873Z,23.30
2023-04-16T07:20:37.089Z,23.30
2023-04-16T07:23:39.180Z,23.60
2023-04-16T07:26:41.640Z,23.70
2023-04-16T07:29:45.772Z,23.50
2023-04-16T07:32:47.797Z,23.30
2023-04-16T07:35:49.862Z,23.90
2023-04-16T07:38:51.862Z,24.60
2023-04-16T07:41:53.919Z,24.70
2023-04-16T07:44:55.951Z,24.80
2023-04-16T07:47:57.993Z,24.80
2023-04-16T07:51:00.141Z,24.60
2023-04-16T07:54:02.286Z,24.60
2023-04-16T07:57:04.313Z,24.80
2023-04-16T08:00:07.208Z,24.80
2023-04-16T08:03:09.573Z,24.90
2023-04-16T08:06:11.777Z,25.60
2023-04-16T08:09:13.785Z,25.60
2023-04-16T08:12:17.343Z,25.70
2023-04-16T08:15:19.761Z,25.30
2023-04-16T08:18:21.816Z,26.10
2023-04-16T08:21:23.887Z,27.10
2023-04-16T08:24:26.400Z,26.40
2023-04-16T08:27:28.380Z,26.30
2023-04-16T08:30:30.732Z,26.00
2023-04-16T08:33:32.973Z,26.40
2023-04-16T08:36:35.061Z,26.70
2023-04-16T08:39:41.159Z,26.90
2023-04-16T08:42:52.646Z,27.40
2023-04-16T08:45:57.069Z,27.90
2023-04-16T08:49:00.122Z,28.70
2023-04-16T08:52:06.244Z,28.70
2023-04-16T08:55:14.627Z,28.40
2023-04-16T08:58:20.196Z,28.70
2023-04-16T09:01:29.621Z,28.90
2023-04-16T09:04:32.640Z,28.20
2023-04-16T09:07:35.621Z,28.30
2023-04-16T09:10:41.777Z,28.60
2023-04-16T09:13:44.579Z,30.00
2023-04-16T09:16:53.619Z,30.00
2023-04-16T09:19:55.954Z,30.40
2023-04-16T09:22:57.915Z,30.60
2023-04-16T09:26:01.083Z,30.90
2023-04-16T09:29:03.382Z,30.80
2023-04-16T09:32:07.600Z,30.60
2023-04-16T09:35:09.701Z,30.40
2023-04-16T09:38:11.793Z,31.80
2023-04-16T09:41:16.439Z,32.40
2023-04-16T09:44:18.715Z,31.70
2023-04-16T09:47:21.485Z,32.00
2023-04-16T09:50:26.889Z,32.30
2023-04-16T09:53:32.540Z,32.00
2023-04-16T09:56:39.571Z,31.90
2023-04-16T09:59:41.665Z,32.80
2023-04-16T10:02:43.760Z,33.20
2023-04-16T10:05:46.783Z,33.70
2023-04-16T10:08:50.172Z,34.00
2023-04-16T10:11:52.670Z,34.30
2023-04-16T10:14:54.786Z,33.60
2023-04-16T10:17:58.168Z,33.50
2023-04-16T10:21:00.728Z,33.70
2023-04-16T10:24:03.529Z,34.10
2023-04-16T10:27:05.582Z,33.80
2023-04-16T10:30:08.906Z,34.60
2023-04-16T10:33:11.758Z,34.50
2023-04-16T10:36:23.619Z,34.60
2023-04-16T10:39:28.253Z,34.00
2023-04-16T10:42:31.948Z,33.70
2023-04-16T10:45:38.472Z,33.40
2023-04-16T10:48:50.365Z,33.00
2023-04-16T10:52:00.769Z,33.50
2023-04-16T10:55:02.814Z,34.30
2023-04-16T10:58:28.083Z,34.30
2023-04-16T11:01:34.641Z,33.70
2023-04-16T11:04:38.909Z,34.10
2023-04-16T11:07:49.740Z,34.40
2023-04-16T11:10:52.567Z,33.90
2023-04-16T11:13:57.307Z,33.00
2023-04-16T11:17:02.500Z,33.20
2023-04-16T11:20:19.488Z,33.30
2023-04-16T11:23:22.770Z,33.10
2023-04-16T11:26:29.559Z,32.50
2023-04-16T11:29:31.648Z,31.90
2023-04-16T11:32:35.314Z,32.50
2023-04-16T11:35:38.129Z,32.40
2023-04-16T11:38:43.163Z,31.20
2023-04-16T11:41:49.320Z,30.40
2023-04-16T11:44:56.213Z,29.80
2023-04-16T11:47:58.320Z,29.30
2023-04-16T11:51:00.632Z,28.70
2023-04-16T11:54:02.743Z,28.40
2023-04-16T11:57:05.133Z,28.40
2023-04-16T12:00:13.131Z,27.90
2023-04-16T12:03:15.670Z,27.90
2023-04-16T12:06:17.998Z,28.00
2023-04-16T12:09:27.444Z,27.70
2023-04-16T12:12:32.137Z,27.40
2023-04-16T12:15:54.186Z,27.20
2023-04-16T12:19:04.229Z,27.00
2023-04-16T12:22:06.663Z,26.70
2023-04-16T12:25:12.609Z,26.50
2023-04-16T12:28:16.586Z,26.50
2023-04-16T12:31:20.543Z,26.80
2023-04-16T12:34:29.120Z,26.50
2023-04-16T12:37:44.815Z,26.50
2023-04-16T12:40:46.851Z,26.40
2023-04-16T12:43:48.932Z,26.60
2023-04-16T12:46:51.198Z,26.70
2023-04-16T12:49:53.356Z,26.60
2023-04-16T12:52:58.672Z,26.70
2023-04-16T12:56:00.754Z,26.60
2023-04-16T12:59:03.441Z,26.80
2023-04-16T13:02:05.788Z,27.00
2023-04-16T13:05:09.024Z,26.90
2023-04-16T13:08:11.198Z,27.00
2023-04-16T13:11:13.723Z,26.90
2023-04-16T13:14:15.895Z,26.90
2023-04-16T13:17:17.858Z,26.80
2023-04-16T13:20:20.249Z,26.90
2023-04-16T13:23:22.840Z,26.80
2023-04-16T13:26:24.953Z,26.80
2023-04-16T13:29:27.188Z,26.90
2023-04-16T13:32:29.322Z,27.00
2023-04-16T13:35:31.515Z,27.00
2023-04-16T13:38:33.576Z,27.00
2023-04-16T13:41:35.579Z,27.10
2023-04-16T13:44:37.636Z,27.10
2023-04-16T13:47:43.867Z,27.10
2023-04-16T13:50:46.068Z,27.10
2023-04-16T13:53:48.320Z,27.10
2023-04-16T13:56:51.336Z,27.20
2023-04-16T13:59:53.420Z,27.00
2023-04-16T14:02:55.721Z,27.00
2023-04-16T14:05:57.913Z,27.10
2023-04-16T14:09:00.019Z,27.00
2023-04-16T14:12:02.099Z,26.90
2023-04-16T14:15:09.662Z,27.00
2023-04-16T14:18:11.732Z,27.20
2023-04-16T14:21:13.957Z,27.30
2023-04-16T14:24:16.143Z,27.20
2023-04-16T14:27:18.219Z,27.20
2023-04-16T14:30:20.337Z,27.00
2023-04-16T14:33:22.331Z,27.10
2023-04-16T14:36:24.388Z,27.10
2023-04-16T14:39:27.253Z,27.30
2023-04-16T14:42:29.333Z,27.40
2023-04-16T14:45:32.508Z,27.50
2023-04-16T14:48:34.582Z,27.60
2023-04-16T14:51:37.532Z,27.60
2023-04-16T14:54:44.605Z,27.60
2023-04-16T14:57:47.474Z,27.60
2023-04-16T15:00:49.680Z,27.30
2023-04-16T15:03:52.122Z,27.40
2023-04-16T15:06:55.649Z,27.50
2023-04-16T15:09:57.888Z,27.50
2023-04-16T15:12:59.883Z,27.50
2023-04-16T15:16:02.182Z,27.50
2023-04-16T15:19:05.101Z,27.60
2023-04-16T15:22:07.510Z,27.70
2023-04-16T15:25:09.817Z,27.60
2023-04-16T15:28:11.881Z,27.60
2023-04-16T15:31:14.038Z,27.70
2023-04-16T15:34:16.229Z,27.70
2023-04-16T15:37:18.388Z,27.80
2023-04-16T15:40:21.187Z,27.70
2023-04-16T15:43:23.296Z,27.80
2023-04-16T15:46:25.829Z,27.70
2023-04-16T15:49:27.901Z,27.90
2023-04-16T15:52:30.190Z,27.70
2023-04-16T15:55:32.340Z,27.80
2023-04-16T15:58:34.413Z,27.80
2023-04-16T16:01:36.550Z,28.00
2023-04-16T16:04:38.817Z,28.00
2023-04-16T16:07:41.897Z,27.90
2023-04-16T16:10:44.039Z,28.00
2023-04-16T16:13:46.135Z,28.10
2023-04-16T16:16:48.372Z,28.10
2023-04-16T16:19:52.181Z,28.10
2023-04-16T16:22:54.219Z,27.90
2023-04-16T16:25:56.934Z,27.70
2023-04-16T16:28:59.910Z,27.70
2023-04-16T16:32:01.967Z,27.70
2023-04-16T16:35:04.652Z,27.70
2023-04-16T16:38:08.576Z,27.70
2023-04-16T16:41:11.494Z,27.80
2023-04-16T16:44:13.542Z,27.70
2023-04-16T16:47:15.703Z,27.60
2023-04-16T16:50:18.052Z,27.60
2023-04-16T16:53:20.123Z,27.50
2023-04-16T16:56:23.036Z,27.30
2023-04-16T16:59:25.189Z,27.40
2023-04-16T17:02:27.474Z,27.40
2023-04-16T17:05:29.569Z,27.50
2023-04-16T17:08:31.605Z,27.50
2023-04-16T17:11:33.642Z,27.50
2023-04-16T17:14:35.802Z,27.40
2023-04-16T17:17:37.840Z,27.30
2023-04-16T17:20:43.003Z,27.40
2023-04-16T17:23:45.817Z,27.40
2023-04-16T17:26:48.644Z,27.40
2023-04-16T17:29:51.201Z,27.40
2023-04-16T17:32:54.283Z,27.40
2023-04-16T17:35:56.342Z,27.40
2023-04-16T17:38:58.731Z,27.40
2023-04-16T17:42:04.681Z,27.40
2023-04-16T17:45:08.298Z,27.40
2023-04-16T17:48:11.117Z,27.30
2023-04-16T17:51:15.560Z,27.20
2023-04-16T17:54:17.607Z,27.10
2023-04-16T17:57:19.623Z,27.00
2023-04-16T18:00:22.107Z,26.90
2023-04-16T18:03:24.151Z,26.90
2023-04-16T18:06:27.742Z,26.70
2023-04-16T18:09:31.532Z,26.60
2023-04-16T18:12:33.812Z,26.50
2023-04-16T18:15:38.759Z,26.40
2023-04-16T18:18:41.136Z,26.40
2023-04-16T18:21:43.482Z,26.30
2023-04-16T18:24:45.677Z,26.20
2023-04-16T18:27:47.919Z,26.10
2023-04-16T18:30:51.127Z,26.00
2023-04-16T18:33:57.860Z,25.80
2023-04-16T18:37:00.877Z,25.80
2023-04-16T18:40:05.775Z,25.60
2023-04-16T18:43:07.853Z,25.50
2023-04-16T18:46:09.878Z,25.30
2023-04-16T18:49:13.081Z,25.20
2023-04-16T18:52:15.586Z,25.10
2023-04-16T18:55:18.349Z,25.00
2023-04-16T18:58:20.595Z,24.90
2023-04-16T19:01:22.817Z,24.70
2023-04-16T19:04:25.203Z,24.60
2023-04-16T19:07:27.313Z,24.50
2023-04-16T19:10:29.727Z,24.40
2023-04-16T19:13:32.523Z,24.20
2023-04-16T19:16:35.335Z,24.10
2023-04-16T19:19:37.503Z,24.00
2023-04-16T19:22:39.507Z,23.90
2023-04-16T19:25:41.654Z,23.80
2023-04-16T19:28:43.794Z,23.70
2023-04-16T19:31:47.236Z,23.60
2023-04-16T19:34:49.340Z,23.50
2023-04-16T19:37:51.698Z,23.40
2023-04-16T19:40:53.816Z,23.30
2023-04-16T19:43:56.105Z,23.20
2023-04-16T19:46:58.799Z,23.20
2023-04-16T19:50:01.080Z,23.20
2023-04-16T19:53:03.261Z,23.10
2023-04-16T19:56:05.768Z,23.00
2023-04-16T19:59:07.804Z,23.00
2023-04-16T20:02:09.814Z,22.90
2023-04-16T20:05:11.861Z,22.80
2023-04-16T20:08:13.837Z,22.70
2023-04-16T20:11:15.877Z,22.70
2023-04-16T20:14:18.044Z,22.60
2023-04-16T20:17:20.151Z,22.60
2023-04-16T20:20:23.796Z,22.50
2023-04-16T20:23:25.960Z,22.40
2023-04-16T20:26:33.720Z,22.40
2023-04-16T20:29:35.868Z,22.30
2023-04-16T20:32:45.395Z,22.20
2023-04-16T20:35:47.622Z,22.20
2023-04-16T20:38:51.464Z,22.20
2023-04-16T20:41:57.411Z,22.20
2023-04-16T20:45:00.782Z,22.10
2023-04-16T20:48:02.805Z,22.10
2023-04-16T20:51:06.154Z,22.10
2023-04-16T20:54:10.197Z,22.00
2023-04-16T20:57:12.159Z,22.00
2023-04-16T21:00:15.534Z,22.00
2023-04-16T21:03:18.288Z,21.90
2023-04-16T21:06:22.567Z,21.80
2023-04-16T21:09:24.485Z,21.90
2023-04-16T21:12:26.539Z,21.80
2023-04-16T21:15:28.624Z,21.80
2023-04-16T21:18:30.887Z,21.70
2023-04-16T21:21:33.759Z,21.70
2023-04-16T21:24:35.989Z,21.70
2023-04-16T21:27:38.003Z,21.70
2023-04-16T21:30:40.063Z,21.70
2023-04-16T21:33:42.248Z,21.70
2023-04-16T21:36:44.292Z,21.70
2023-04-16T21:39:46.314Z,21.70
2023-04-16T21:42:48.368Z,21.70
2023-04-16T21:45:53.544Z,21.70
2023-04-16T21:48:55.530Z,21.60
2023-04-16T21:51:59.338Z,21.60
2023-04-16T21:55:01.428Z,21.60
2023-04-16T21:58:03.912Z,21.60
2023-04-16T22:01:07.730Z,21.60
2023-04-16T22:04:12.303Z,21.60
2023-04-16T22:07:16.977Z,21.60
2023-04-16T22:10:19.378Z,21.50
2023-04-16T22:13:22.845Z,21.40
2023-04-16T22:16:25.846Z,21.50
2023-04-16T22:19:28.365Z,21.40
2023-04-16T22:22:30.532Z,21.40
2023-04-16T22:25:32.543Z,21.40
2023-04-16T22:28:34.496Z,21.40
2023-04-16T22:31:36.498Z,21.40
2023-04-16T22:34:38.695Z,21.40
2023-04-16T22:37:40.905Z,21.30
2023-04-16T22:40:45.233Z,21.40
2023-04-16T22:43:48.459Z,21.40
2023-04-16T22:46:51.820Z,21.40
2023-04-16T22:49:54.077Z,21.30
2023-04-16T22:52:56.029Z,21.30
2023-04-16T22:55:57.989Z,21.30
2023-04-16T22:59:00.006Z,21.30
2023-04-16T23:02:02.182Z,21.30
2023-04-16T23:05:05.021Z,21.30
2023-04-16T23:08:07.076Z,21.20
2023-04-16T23:11:09.027Z,21.20
2023-04-16T23:14:11.198Z,21.20
2023-04-16T23:17:13.925Z,21.20
2023-04-16T23:20:16.120Z,21.20
2023-04-16T23:23:18.199Z,21.10
2023-04-16T23:26:20.294Z,21.10
2023-04-16T23:29:22.384Z,21.10
2023-04-16T23:32:24.610Z,21.10
2023-04-16T23:35:26.727Z,21.10
2023-04-16T23:38:28.860Z,21.10
2023-04-16T23:41:30.873Z,21.10
2023-04-16T23:44:33.848Z,21.00
2023-04-16T23:47:35.972Z,21.00
2023-04-16T23:50:38.071Z,21.00
2023-04-16T23:53:44.458Z,21.00
2023-04-16T23:56:46.648Z,21.00
2023-04-16T23:59:48.596Z,20.90
